sensor_id;sensor_type;location;lat;lon;timestamp;temperature;humidity
2577;DHT22;1298;51.252;6.802;2023-05-10T00:00:49;13.50;99.90
2577;DHT22;1298;51.252;6.802;2023-05-10T00:03:35;13.50;99.90
2577;DHT22;1298;51.252;6.802;2023-05-10T00:06:19;13.50;99.90
2577;DHT22;1298;51.252;6.802;2023-05-10T00:09:04;13.50;99.90
2577;DHT22;1298;51.252;6.802;2023-05-10T00:11:50;13.50;99.90
2577;DHT22;1298;51.252;6.802;2023-05-10T00:14:36;13.50;99.90
2577;DHT22;1298;51.252;6.802;2023-05-10T00:17:22;13.50;99.90
2577;DHT22;1298;51.252;6.802;2023-05-10T00:20:07;13.50;99.90
2577;DHT22;1298;51.252;6.802;2023-05-10T00:22:52;13.50;99.90
2577;DHT22;1298;51.252;6.802;2023-05-10T00:25:37;13.50;99.90
2577;DHT22;1298;51.252;6.802;2023-05-10T00:28:22;13.50;99.90
2577;DHT22;1298;51.252;6.802;2023-05-10T00:31:09;13.50;99.90
2577;DHT22;1298;51.252;6.802;2023-05-10T00:33:54;13.50;99.90
2577;DHT22;1298;51.252;6.802;2023-05-10T00:36:40;13.60;99.90
2577;DHT22;1298;51.252;6.802;2023-05-10T00:39:25;13.60;99.90
2577;DHT22;1298;51.252;6.802;2023-05-10T00:42:12;13.50;99.90
2577;DHT22;1298;51.252;6.802;2023-05-10T00:44:57;13.50;99.90
2577;DHT22;1298;51.252;6.802;2023-05-10T00:47:44;13.50;99.90
2577;DHT22;1298;51.252;6.802;2023-05-10T00:50:29;13.40;99.90
2577;DHT22;1298;51.252;6.802;2023-05-10T00:53:15;13.30;99.90
2577;DHT22;1298;51.252;6.802;2023-05-10T00:56:01;13.30;99.90
2577;DHT22;1298;51.252;6.802;2023-05-10T00:58:47;13.20;99.90
2577;DHT22;1298;51.252;6.802;2023-05-10T01:01:32;13.20;99.90
2577;DHT22;1298;51.252;6.802;2023-05-10T01:04:18;13.10;99.90
2577;DHT22;1298;51.252;6.802;2023-05-10T01:07:09;13.10;99.90
2577;DHT22;1298;51.252;6.802;2023-05-10T01:09:54;13.10;99.90
2577;DHT22;1298;51.252;6.802;2023-05-10T01:12:40;13.10;99.90
2577;DHT22;1298;51.252;6.802;2023-05-10T01:15:26;13.20;99.90
2577;DHT22;1298;51.252;6.802;2023-05-10T01:18:11;13.20;99.90
2577;DHT22;1298;51.252;6.802;2023-05-10T01:21:00;13.10;99.90
2577;DHT22;1298;51.252;6.802;2023-05-10T01:24:03;13.10;99.90
2577;DHT22;1298;51.252;6.802;2023-05-10T01:27:07;13.10;99.90
2577;DHT22;1298;51.252;6.802;2023-05-10T01:33:02;13.10;99.90
2577;DHT22;1298;51.252;6.802;2023-05-10T01:35:55;13.10;99.90
2577;DHT22;1298;51.252;6.802;2023-05-10T01:38:47;13.00;99.90
2577;DHT22;1298;51.252;6.802;2023-05-10T01:41:36;13.00;99.90
2577;DHT22;1298;51.252;6.802;2023-05-10T01:44:24;13.00;99.90
2577;DHT22;1298;51.252;6.802;2023-05-10T01:47:13;13.00;99.90
2577;DHT22;1298;51.252;6.802;2023-05-10T01:50:01;13.00;99.90
2577;DHT22;1298;51.252;6.802;2023-05-10T01:52:50;13.00;99.90
2577;DHT22;1298;51.252;6.802;2023-05-10T01:55:39;12.90;99.90
2577;DHT22;1298;51.252;6.802;2023-05-10T01:58:27;12.90;99.90
2577;DHT22;1298;51.252;6.802;2023-05-10T02:01:13;12.90;99.90
2577;DHT22;1298;51.252;6.802;2023-05-10T02:03:58;12.90;99.90
2577;DHT22;1298;51.252;6.802;2023-05-10T02:06:45;12.90;99.90
2577;DHT22;1298;51.252;6.802;2023-05-10T02:09:31;12.90;99.90
2577;DHT22;1298;51.252;6.802;2023-05-10T02:12:17;12.90;99.90
2577;DHT22;1298;51.252;6.802;2023-05-10T02:15:04;13.00;99.90
2577;DHT22;1298;51.252;6.802;2023-05-10T02:17:50;13.00;99.90
2577;DHT22;1298;51.252;6.802;2023-05-10T02:20:37;12.90;99.90
2577;DHT22;1298;51.252;6.802;2023-05-10T02:23:24;13.00;99.90
2577;DHT22;1298;51.252;6.802;2023-05-10T02:26:10;13.00;99.90
2577;DHT22;1298;51.252;6.802;2023-05-10T02:28:57;13.00;99.90
2577;DHT22;1298;51.252;6.802;2023-05-10T02:31:43;13.00;99.90
2577;DHT22;1298;51.252;6.802;2023-05-10T02:34:28;13.00;99.90
2577;DHT22;1298;51.252;6.802;2023-05-10T02:37:14;13.00;99.90
2577;DHT22;1298;51.252;6.802;2023-05-10T02:40:03;13.00;99.90
2577;DHT22;1298;51.252;6.802;2023-05-10T02:42:50;13.10;99.90
2577;DHT22;1298;51.252;6.802;2023-05-10T02:45:37;13.10;99.90
2577;DHT22;1298;51.252;6.802;2023-05-10T02:48:24;13.10;99.90
2577;DHT22;1298;51.252;6.802;2023-05-10T02:51:09;13.20;99.90
2577;DHT22;1298;51.252;6.802;2023-05-10T02:53:58;13.20;99.90
2577;DHT22;1298;51.252;6.802;2023-05-10T02:56:49;13.10;99.90
2577;DHT22;1298;51.252;6.802;2023-05-10T02:59:35;13.10;99.90
2577;DHT22;1298;51.252;6.802;2023-05-10T03:02:20;13.10;99.90
2577;DHT22;1298;51.252;6.802;2023-05-10T03:05:06;13.10;99.90
2577;DHT22;1298;51.252;6.802;2023-05-10T03:07:51;13.20;99.90
2577;DHT22;1298;51.252;6.802;2023-05-10T03:10:38;13.20;99.90
2577;DHT22;1298;51.252;6.802;2023-05-10T03:13:29;13.20;99.90
2577;DHT22;1298;51.252;6.802;2023-05-10T03:16:15;13.20;99.90
2577;DHT22;1298;51.252;6.802;2023-05-10T03:19:02;13.20;99.90
2577;DHT22;1298;51.252;6.802;2023-05-10T03:21:52;13.20;99.90
2577;DHT22;1298;51.252;6.802;2023-05-10T03:24:38;13.20;99.90
2577;DHT22;1298;51.252;6.802;2023-05-10T03:27:25;13.10;99.90
2577;DHT22;1298;51.252;6.802;2023-05-10T03:30:12;13.20;99.90
2577;DHT22;1298;51.252;6.802;2023-05-10T03:32:58;13.20;99.90
2577;DHT22;1298;51.252;6.802;2023-05-10T03:35:48;13.20;99.90
2577;DHT22;1298;51.252;6.802;2023-05-10T03:38:34;13.20;99.90
2577;DHT22;1298;51.252;6.802;2023-05-10T03:41:19;13.30;99.90
2577;DHT22;1298;51.252;6.802;2023-05-10T03:44:05;13.30;99.90
2577;DHT22;1298;51.252;6.802;2023-05-10T03:46:51;13.30;99.90
2577;DHT22;1298;51.252;6.802;2023-05-10T03:49:36;13.30;99.90
2577;DHT22;1298;51.252;6.802;2023-05-10T03:52:22;13.30;99.90
2577;DHT22;1298;51.252;6.802;2023-05-10T03:55:07;13.30;99.90
2577;DHT22;1298;51.252;6.802;2023-05-10T03:57:52;13.40;99.90
2577;DHT22;1298;51.252;6.802;2023-05-10T04:00:38;13.40;99.90
2577;DHT22;1298;51.252;6.802;2023-05-10T04:03:28;13.30;99.90
2577;DHT22;1298;51.252;6.802;2023-05-10T04:06:13;13.40;99.90
2577;DHT22;1298;51.252;6.802;2023-05-10T04:08:59;13.40;99.90
2577;DHT22;1298;51.252;6.802;2023-05-10T04:11:48;13.40;99.90
2577;DHT22;1298;51.252;6.802;2023-05-10T04:14:33;13.40;99.90
2577;DHT22;1298;51.252;6.802;2023-05-10T04:17:18;13.40;99.90
2577;DHT22;1298;51.252;6.802;2023-05-10T04:20:05;13.40;99.90
2577;DHT22;1298;51.252;6.802;2023-05-10T04:22:51;13.50;99.90
2577;DHT22;1298;51.252;6.802;2023-05-10T04:25:36;13.40;99.90
2577;DHT22;1298;51.252;6.802;2023-05-10T04:28:21;13.40;99.90
2577;DHT22;1298;51.252;6.802;2023-05-10T04:31:08;13.50;99.90
2577;DHT22;1298;51.252;6.802;2023-05-10T04:33:53;13.40;99.90
2577;DHT22;1298;51.252;6.802;2023-05-10T04:36:39;13.40;99.90
2577;DHT22;1298;51.252;6.802;2023-05-10T04:39:24;13.40;99.90
2577;DHT22;1298;51.252;6.802;2023-05-10T04:42:10;13.50;99.90
2577;DHT22;1298;51.252;6.802;2023-05-10T04:44:55;13.40;99.90
2577;DHT22;1298;51.252;6.802;2023-05-10T04:47:40;13.50;99.90
2577;DHT22;1298;51.252;6.802;2023-05-10T04:50:25;13.50;99.90
2577;DHT22;1298;51.252;6.802;2023-05-10T04:53:12;13.60;99.90
2577;DHT22;1298;51.252;6.802;2023-05-10T04:55:58;13.60;99.90
2577;DHT22;1298;51.252;6.802;2023-05-10T04:58:43;13.60;99.90
2577;DHT22;1298;51.252;6.802;2023-05-10T05:01:28;13.60;99.90
2577;DHT22;1298;51.252;6.802;2023-05-10T05:04:13;13.70;99.90
2577;DHT22;1298;51.252;6.802;2023-05-10T05:06:59;13.70;99.90
2577;DHT22;1298;51.252;6.802;2023-05-10T05:09:46;13.70;99.90
2577;DHT22;1298;51.252;6.802;2023-05-10T05:12:31;13.70;99.90
2577;DHT22;1298;51.252;6.802;2023-05-10T05:15:16;13.70;99.90
2577;DHT22;1298;51.252;6.802;2023-05-10T05:18:01;13.80;99.90
2577;DHT22;1298;51.252;6.802;2023-05-10T05:20:46;13.80;99.90
2577;DHT22;1298;51.252;6.802;2023-05-10T05:23:31;13.80;99.90
2577;DHT22;1298;51.252;6.802;2023-05-10T05:26:18;13.80;99.90
2577;DHT22;1298;51.252;6.802;2023-05-10T05:29:03;13.80;99.90
2577;DHT22;1298;51.252;6.802;2023-05-10T05:31:48;13.90;99.90
2577;DHT22;1298;51.252;6.802;2023-05-10T05:34:34;13.90;99.90
2577;DHT22;1298;51.252;6.802;2023-05-10T05:37:19;13.90;99.90
2577;DHT22;1298;51.252;6.802;2023-05-10T05:40:05;14.00;99.90
2577;DHT22;1298;51.252;6.802;2023-05-10T05:42:53;13.90;99.90
2577;DHT22;1298;51.252;6.802;2023-05-10T05:45:38;13.80;99.90
2577;DHT22;1298;51.252;6.802;2023-05-10T05:48:24;13.80;99.90
2577;DHT22;1298;51.252;6.802;2023-05-10T05:51:09;13.80;99.90
2577;DHT22;1298;51.252;6.802;2023-05-10T05:53:54;13.80;99.90
2577;DHT22;1298;51.252;6.802;2023-05-10T05:56:40;13.80;99.90
2577;DHT22;1298;51.252;6.802;2023-05-10T05:59:26;13.80;99.90
2577;DHT22;1298;51.252;6.802;2023-05-10T06:02:12;13.70;99.90
2577;DHT22;1298;51.252;6.802;2023-05-10T06:04:57;13.60;99.90
2577;DHT22;1298;51.252;6.802;2023-05-10T06:07:42;13.60;99.90
2577;DHT22;1298;51.252;6.802;2023-05-10T06:10:27;13.60;99.90
2577;DHT22;1298;51.252;6.802;2023-05-10T06:13:12;13.60;99.90
2577;DHT22;1298;51.252;6.802;2023-05-10T06:15:59;13.60;99.90
2577;DHT22;1298;51.252;6.802;2023-05-10T06:18:44;13.60;99.90
2577;DHT22;1298;51.252;6.802;2023-05-10T06:21:29;13.60;99.90
2577;DHT22;1298;51.252;6.802;2023-05-10T06:24:15;13.70;99.90
2577;DHT22;1298;51.252;6.802;2023-05-10T06:27:00;13.80;99.90
2577;DHT22;1298;51.252;6.802;2023-05-10T06:29:45;13.80;99.90
2577;DHT22;1298;51.252;6.802;2023-05-10T06:32:32;13.80;99.90
2577;DHT22;1298;51.252;6.802;2023-05-10T06:35:17;13.70;99.90
2577;DHT22;1298;51.252;6.802;2023-05-10T06:38:03;13.70;99.90
2577;DHT22;1298;51.252;6.802;2023-05-10T06:40:48;13.70;99.90
2577;DHT22;1298;51.252;6.802;2023-05-10T06:43:33;13.60;99.90
2577;DHT22;1298;51.252;6.802;2023-05-10T06:46:18;13.60;99.90
2577;DHT22;1298;51.252;6.802;2023-05-10T06:49:05;13.60;99.90
2577;DHT22;1298;51.252;6.802;2023-05-10T06:51:50;13.60;99.90
2577;DHT22;1298;51.252;6.802;2023-05-10T06:54:35;13.60;99.90
2577;DHT22;1298;51.252;6.802;2023-05-10T06:57:20;13.60;99.90
2577;DHT22;1298;51.252;6.802;2023-05-10T07:00:05;13.60;99.90
2577;DHT22;1298;51.252;6.802;2023-05-10T07:02:51;13.60;99.90
2577;DHT22;1298;51.252;6.802;2023-05-10T07:05:38;13.60;99.90
2577;DHT22;1298;51.252;6.802;2023-05-10T07:08:23;13.70;99.90
2577;DHT22;1298;51.252;6.802;2023-05-10T07:11:08;13.80;99.90
2577;DHT22;1298;51.252;6.802;2023-05-10T07:13:54;13.80;99.90
2577;DHT22;1298;51.252;6.802;2023-05-10T07:16:39;13.90;99.90
2577;DHT22;1298;51.252;6.802;2023-05-10T07:19:25;14.00;99.90
2577;DHT22;1298;51.252;6.802;2023-05-10T07:22:12;14.10;99.90
2577;DHT22;1298;51.252;6.802;2023-05-10T07:24:57;14.10;99.90
2577;DHT22;1298;51.252;6.802;2023-05-10T07:27:42;14.30;99.90
2577;DHT22;1298;51.252;6.802;2023-05-10T07:30:27;14.30;99.90
2577;DHT22;1298;51.252;6.802;2023-05-10T07:33:13;14.30;99.90
2577;DHT22;1298;51.252;6.802;2023-05-10T07:35:59;14.30;99.90
2577;DHT22;1298;51.252;6.802;2023-05-10T07:38:45;14.30;99.90
2577;DHT22;1298;51.252;6.802;2023-05-10T07:41:30;14.50;99.90
2577;DHT22;1298;51.252;6.802;2023-05-10T07:44:16;14.60;99.90
2577;DHT22;1298;51.252;6.802;2023-05-10T07:47:02;14.60;99.90
2577;DHT22;1298;51.252;6.802;2023-05-10T07:49:48;14.70;99.90
2577;DHT22;1298;51.252;6.802;2023-05-10T07:52:33;14.60;99.90
2577;DHT22;1298;51.252;6.802;2023-05-10T07:55:19;14.60;99.90
2577;DHT22;1298;51.252;6.802;2023-05-10T07:58:05;14.60;99.90
2577;DHT22;1298;51.252;6.802;2023-05-10T08:00:51;14.60;99.90
2577;DHT22;1298;51.252;6.802;2023-05-10T08:03:36;14.60;99.90
2577;DHT22;1298;51.252;6.802;2023-05-10T08:06:21;14.60;99.90
2577;DHT22;1298;51.252;6.802;2023-05-10T08:09:06;14.70;99.90
2577;DHT22;1298;51.252;6.802;2023-05-10T08:11:53;14.50;99.90
2577;DHT22;1298;51.252;6.802;2023-05-10T08:14:39;14.50;99.90
2577;DHT22;1298;51.252;6.802;2023-05-10T08:17:24;14.60;99.90
2577;DHT22;1298;51.252;6.802;2023-05-10T08:20:09;14.70;99.90
2577;DHT22;1298;51.252;6.802;2023-05-10T08:22:57;14.90;99.90
2577;DHT22;1298;51.252;6.802;2023-05-10T08:25:42;15.10;99.90
2577;DHT22;1298;51.252;6.802;2023-05-10T08:28:28;15.30;99.90
2577;DHT22;1298;51.252;6.802;2023-05-10T08:31:14;15.60;99.90
2577;DHT22;1298;51.252;6.802;2023-05-10T08:34:00;15.80;99.90
2577;DHT22;1298;51.252;6.802;2023-05-10T08:36:45;15.90;99.90
2577;DHT22;1298;51.252;6.802;2023-05-10T08:39:33;15.90;99.90
2577;DHT22;1298;51.252;6.802;2023-05-10T08:42:19;15.90;99.90
2577;DHT22;1298;51.252;6.802;2023-05-10T08:45:09;16.00;99.90
2577;DHT22;1298;51.252;6.802;2023-05-10T08:47:55;16.20;99.90
2577;DHT22;1298;51.252;6.802;2023-05-10T08:50:40;16.10;99.90
2577;DHT22;1298;51.252;6.802;2023-05-10T08:53:26;16.00;99.90
2577;DHT22;1298;51.252;6.802;2023-05-10T08:56:14;15.80;99.90
2577;DHT22;1298;51.252;6.802;2023-05-10T08:59:01;15.70;99.90
2577;DHT22;1298;51.252;6.802;2023-05-10T09:01:48;15.40;99.90
2577;DHT22;1298;51.252;6.802;2023-05-10T09:04:34;15.20;99.90
2577;DHT22;1298;51.252;6.802;2023-05-10T09:07:20;15.10;99.90
2577;DHT22;1298;51.252;6.802;2023-05-10T09:10:06;14.90;99.90
2577;DHT22;1298;51.252;6.802;2023-05-10T09:12:51;14.90;99.90
2577;DHT22;1298;51.252;6.802;2023-05-10T09:15:38;15.00;99.90
2577;DHT22;1298;51.252;6.802;2023-05-10T09:18:25;15.20;99.90
2577;DHT22;1298;51.252;6.802;2023-05-10T09:21:10;15.40;99.90
2577;DHT22;1298;51.252;6.802;2023-05-10T09:23:56;15.50;99.90
2577;DHT22;1298;51.252;6.802;2023-05-10T09:26:45;15.70;99.90
2577;DHT22;1298;51.252;6.802;2023-05-10T09:29:38;15.80;99.90
2577;DHT22;1298;51.252;6.802;2023-05-10T09:32:29;15.60;99.90
2577;DHT22;1298;51.252;6.802;2023-05-10T09:35:22;15.50;99.90
2577;DHT22;1298;51.252;6.802;2023-05-10T09:38:07;15.20;99.90
2577;DHT22;1298;51.252;6.802;2023-05-10T09:40:54;15.20;99.90
2577;DHT22;1298;51.252;6.802;2023-05-10T09:43:41;15.40;99.90
2577;DHT22;1298;51.252;6.802;2023-05-10T09:46:26;15.50;99.90
2577;DHT22;1298;51.252;6.802;2023-05-10T09:49:14;15.80;99.90
2577;DHT22;1298;51.252;6.802;2023-05-10T09:52:02;16.10;99.90
2577;DHT22;1298;51.252;6.802;2023-05-10T09:54:52;16.10;99.90
2577;DHT22;1298;51.252;6.802;2023-05-10T09:57:37;16.20;99.90
2577;DHT22;1298;51.252;6.802;2023-05-10T10:00:22;15.80;99.90
2577;DHT22;1298;51.252;6.802;2023-05-10T10:03:11;15.70;99.90
2577;DHT22;1298;51.252;6.802;2023-05-10T10:05:57;15.70;99.90
2577;DHT22;1298;51.252;6.802;2023-05-10T10:08:43;15.90;99.90
2577;DHT22;1298;51.252;6.802;2023-05-10T10:11:28;16.10;99.90
2577;DHT22;1298;51.252;6.802;2023-05-10T10:14:13;16.30;99.90
2577;DHT22;1298;51.252;6.802;2023-05-10T10:16:59;16.10;99.90
2577;DHT22;1298;51.252;6.802;2023-05-10T10:19:44;15.80;99.90
2577;DHT22;1298;51.252;6.802;2023-05-10T10:22:30;15.70;99.90
2577;DHT22;1298;51.252;6.802;2023-05-10T10:25:19;15.70;99.90
2577;DHT22;1298;51.252;6.802;2023-05-10T10:28:08;15.60;99.90
2577;DHT22;1298;51.252;6.802;2023-05-10T10:30:56;15.30;99.90
2577;DHT22;1298;51.252;6.802;2023-05-10T10:33:51;15.30;99.90
2577;DHT22;1298;51.252;6.802;2023-05-10T10:36:40;15.30;99.90
2577;DHT22;1298;51.252;6.802;2023-05-10T10:39:27;15.20;99.90
2577;DHT22;1298;51.252;6.802;2023-05-10T10:42:13;15.20;99.90
2577;DHT22;1298;51.252;6.802;2023-05-10T10:45:10;15.20;99.90
2577;DHT22;1298;51.252;6.802;2023-05-10T10:51:00;15.30;99.90
2577;DHT22;1298;51.252;6.802;2023-05-10T10:53:45;15.40;99.90
2577;DHT22;1298;51.252;6.802;2023-05-10T10:56:32;15.50;99.90
2577;DHT22;1298;51.252;6.802;2023-05-10T10:59:27;15.70;99.90
2577;DHT22;1298;51.252;6.802;2023-05-10T11:08:17;16.10;99.90
2577;DHT22;1298;51.252;6.802;2023-05-10T11:11:04;16.10;99.90
2577;DHT22;1298;51.252;6.802;2023-05-10T11:13:51;16.10;99.90
2577;DHT22;1298;51.252;6.802;2023-05-10T11:16:42;16.00;99.90
2577;DHT22;1298;51.252;6.802;2023-05-10T11:19:27;15.80;99.90
2577;DHT22;1298;51.252;6.802;2023-05-10T11:22:13;15.80;99.90
2577;DHT22;1298;51.252;6.802;2023-05-10T11:24:58;15.80;99.90
2577;DHT22;1298;51.252;6.802;2023-05-10T11:27:44;15.70;99.90
2577;DHT22;1298;51.252;6.802;2023-05-10T11:30:30;15.80;99.90
2577;DHT22;1298;51.252;6.802;2023-05-10T11:33:17;16.00;99.90
2577;DHT22;1298;51.252;6.802;2023-05-10T11:36:03;16.00;99.90
2577;DHT22;1298;51.252;6.802;2023-05-10T11:38:48;16.00;99.90
2577;DHT22;1298;51.252;6.802;2023-05-10T11:41:33;16.10;99.90
2577;DHT22;1298;51.252;6.802;2023-05-10T11:44:19;16.40;99.90
2577;DHT22;1298;51.252;6.802;2023-05-10T11:47:04;16.60;99.90
2577;DHT22;1298;51.252;6.802;2023-05-10T11:49:51;16.70;99.90
2577;DHT22;1298;51.252;6.802;2023-05-10T11:52:36;16.60;99.90
2577;DHT22;1298;51.252;6.802;2023-05-10T11:55:21;16.40;99.90
2577;DHT22;1298;51.252;6.802;2023-05-10T11:58:07;16.30;99.90
2577;DHT22;1298;51.252;6.802;2023-05-10T12:00:52;16.30;99.90
2577;DHT22;1298;51.252;6.802;2023-05-10T12:03:37;16.40;99.90
2577;DHT22;1298;51.252;6.802;2023-05-10T12:06:25;16.60;99.90
2577;DHT22;1298;51.252;6.802;2023-05-10T12:09:11;16.70;99.90
2577;DHT22;1298;51.252;6.802;2023-05-10T12:11:56;16.90;99.90
2577;DHT22;1298;51.252;6.802;2023-05-10T12:14:42;16.90;99.90
2577;DHT22;1298;51.252;6.802;2023-05-10T12:17:27;16.90;99.90
2577;DHT22;1298;51.252;6.802;2023-05-10T12:20:12;16.80;99.90
2577;DHT22;1298;51.252;6.802;2023-05-10T12:23:00;16.90;99.90
2577;DHT22;1298;51.252;6.802;2023-05-10T12:25:47;16.80;99.90
2577;DHT22;1298;51.252;6.802;2023-05-10T12:28:33;16.90;99.90
2577;DHT22;1298;51.252;6.802;2023-05-10T12:31:19;16.90;99.90
2577;DHT22;1298;51.252;6.802;2023-05-10T12:34:04;16.80;99.90
2577;DHT22;1298;51.252;6.802;2023-05-10T12:36:50;16.80;99.90
2577;DHT22;1298;51.252;6.802;2023-05-10T12:39:40;16.80;99.90
2577;DHT22;1298;51.252;6.802;2023-05-10T12:42:25;17.00;99.90
2577;DHT22;1298;51.252;6.802;2023-05-10T12:45:11;17.10;99.90
2577;DHT22;1298;51.252;6.802;2023-05-10T12:47:56;17.20;99.90
2577;DHT22;1298;51.252;6.802;2023-05-10T12:50:41;17.30;99.90
2577;DHT22;1298;51.252;6.802;2023-05-10T12:53:26;17.30;99.90
2577;DHT22;1298;51.252;6.802;2023-05-10T12:56:13;17.20;99.90
2577;DHT22;1298;51.252;6.802;2023-05-10T12:59:01;17.20;99.90
2577;DHT22;1298;51.252;6.802;2023-05-10T13:01:49;17.40;99.90
2577;DHT22;1298;51.252;6.802;2023-05-10T13:04:35;17.70;99.90
2577;DHT22;1298;51.252;6.802;2023-05-10T13:07:23;18.10;99.90
2577;DHT22;1298;51.252;6.802;2023-05-10T13:10:08;18.20;99.90
2577;DHT22;1298;51.252;6.802;2023-05-10T13:12:54;18.10;99.90
2577;DHT22;1298;51.252;6.802;2023-05-10T13:15:39;18.10;99.90
2577;DHT22;1298;51.252;6.802;2023-05-10T13:18:24;18.10;99.90
2577;DHT22;1298;51.252;6.802;2023-05-10T13:21:10;18.30;99.90
2577;DHT22;1298;51.252;6.802;2023-05-10T13:23:55;18.60;99.90
2577;DHT22;1298;51.252;6.802;2023-05-10T13:26:40;18.70;99.90
2577;DHT22;1298;51.252;6.802;2023-05-10T13:29:26;18.70;99.90
2577;DHT22;1298;51.252;6.802;2023-05-10T13:32:11;18.60;99.90
2577;DHT22;1298;51.252;6.802;2023-05-10T13:34:56;18.60;99.90
2577;DHT22;1298;51.252;6.802;2023-05-10T13:37:41;18.40;99.90
2577;DHT22;1298;51.252;6.802;2023-05-10T13:40:28;18.20;99.90
2577;DHT22;1298;51.252;6.802;2023-05-10T13:43:14;18.30;99.90
2577;DHT22;1298;51.252;6.802;2023-05-10T13:46:01;18.20;99.90
2577;DHT22;1298;51.252;6.802;2023-05-10T13:48:46;18.00;99.90
2577;DHT22;1298;51.252;6.802;2023-05-10T13:51:31;18.10;99.90
2577;DHT22;1298;51.252;6.802;2023-05-10T13:54:17;18.00;99.90
2577;DHT22;1298;51.252;6.802;2023-05-10T13:57:03;17.90;99.90
2577;DHT22;1298;51.252;6.802;2023-05-10T13:59:49;17.90;99.90
2577;DHT22;1298;51.252;6.802;2023-05-10T14:02:36;17.80;99.90
2577;DHT22;1298;51.252;6.802;2023-05-10T14:05:21;17.80;99.90
2577;DHT22;1298;51.252;6.802;2023-05-10T14:08:07;17.90;99.90
2577;DHT22;1298;51.252;6.802;2023-05-10T14:10:53;18.20;99.90
2577;DHT22;1298;51.252;6.802;2023-05-10T14:13:40;18.60;99.90
2577;DHT22;1298;51.252;6.802;2023-05-10T14:16:25;19.00;99.90
2577;DHT22;1298;51.252;6.802;2023-05-10T14:19:13;19.50;99.90
2577;DHT22;1298;51.252;6.802;2023-05-10T14:21:58;20.00;99.90
2577;DHT22;1298;51.252;6.802;2023-05-10T14:24:43;20.60;99.90
2577;DHT22;1298;51.252;6.802;2023-05-10T14:27:31;21.40;99.90
2577;DHT22;1298;51.252;6.802;2023-05-10T14:30:16;21.20;99.90
2577;DHT22;1298;51.252;6.802;2023-05-10T14:33:02;20.80;99.90
2577;DHT22;1298;51.252;6.802;2023-05-10T14:35:48;20.50;99.90
2577;DHT22;1298;51.252;6.802;2023-05-10T14:38:34;20.00;99.90
2577;DHT22;1298;51.252;6.802;2023-05-10T14:41:19;19.70;99.90
2577;DHT22;1298;51.252;6.802;2023-05-10T14:44:04;19.60;99.90
2577;DHT22;1298;51.252;6.802;2023-05-10T14:46:49;19.40;99.90
2577;DHT22;1298;51.252;6.802;2023-05-10T14:49:34;19.30;99.90
2577;DHT22;1298;51.252;6.802;2023-05-10T14:52:21;19.40;99.90
2577;DHT22;1298;51.252;6.802;2023-05-10T14:55:06;19.40;99.90
2577;DHT22;1298;51.252;6.802;2023-05-10T14:57:52;19.70;99.90
2577;DHT22;1298;51.252;6.802;2023-05-10T15:00:37;20.10;99.90
2577;DHT22;1298;51.252;6.802;2023-05-10T15:03:22;20.50;99.90
2577;DHT22;1298;51.252;6.802;2023-05-10T15:06:07;21.20;99.90
2577;DHT22;1298;51.252;6.802;2023-05-10T15:08:54;21.50;99.90
2577;DHT22;1298;51.252;6.802;2023-05-10T15:11:39;21.40;99.90
2577;DHT22;1298;51.252;6.802;2023-05-10T15:14:24;22.00;99.90
2577;DHT22;1298;51.252;6.802;2023-05-10T15:17:09;22.30;99.90
2577;DHT22;1298;51.252;6.802;2023-05-10T15:19:55;22.00;99.90
2577;DHT22;1298;51.252;6.802;2023-05-10T15:22:40;21.50;99.90
2577;DHT22;1298;51.252;6.802;2023-05-10T15:25:27;21.10;99.90
2577;DHT22;1298;51.252;6.802;2023-05-10T15:28:12;21.50;99.90
2577;DHT22;1298;51.252;6.802;2023-05-10T15:30:57;22.50;99.90
2577;DHT22;1298;51.252;6.802;2023-05-10T15:33:43;23.50;99.90
2577;DHT22;1298;51.252;6.802;2023-05-10T15:36:28;24.10;99.90
2577;DHT22;1298;51.252;6.802;2023-05-10T15:39:13;24.40;99.90
2577;DHT22;1298;51.252;6.802;2023-05-10T15:42:00;23.80;99.90
2577;DHT22;1298;51.252;6.802;2023-05-10T15:44:45;23.60;99.90
2577;DHT22;1298;51.252;6.802;2023-05-10T15:47:34;23.80;99.90
2577;DHT22;1298;51.252;6.802;2023-05-10T15:50:19;23.30;99.90
2577;DHT22;1298;51.252;6.802;2023-05-10T15:53:04;22.90;99.90
2577;DHT22;1298;51.252;6.802;2023-05-10T15:55:49;23.00;99.90
2577;DHT22;1298;51.252;6.802;2023-05-10T15:58:36;23.00;99.90
2577;DHT22;1298;51.252;6.802;2023-05-10T16:01:22;22.50;99.90
2577;DHT22;1298;51.252;6.802;2023-05-10T16:04:07;21.90;99.90
2577;DHT22;1298;51.252;6.802;2023-05-10T16:06:52;21.20;99.90
2577;DHT22;1298;51.252;6.802;2023-05-10T16:09:37;20.40;99.90
2577;DHT22;1298;51.252;6.802;2023-05-10T16:12:22;19.60;99.90
2577;DHT22;1298;51.252;6.802;2023-05-10T16:15:09;18.60;99.90
2577;DHT22;1298;51.252;6.802;2023-05-10T16:17:55;17.80;99.90
2577;DHT22;1298;51.252;6.802;2023-05-10T16:20:40;17.20;99.90
2577;DHT22;1298;51.252;6.802;2023-05-10T16:23:26;16.80;99.90
2577;DHT22;1298;51.252;6.802;2023-05-10T16:26:12;16.40;99.90
2577;DHT22;1298;51.252;6.802;2023-05-10T16:28:57;16.20;99.90
2577;DHT22;1298;51.252;6.802;2023-05-10T16:31:44;16.20;99.90
2577;DHT22;1298;51.252;6.802;2023-05-10T16:34:29;16.10;99.90
2577;DHT22;1298;51.252;6.802;2023-05-10T16:37:14;15.80;99.90
2577;DHT22;1298;51.252;6.802;2023-05-10T16:39:59;15.60;99.90
2577;DHT22;1298;51.252;6.802;2023-05-10T16:42:44;15.60;99.90
2577;DHT22;1298;51.252;6.802;2023-05-10T16:45:30;15.30;99.90
2577;DHT22;1298;51.252;6.802;2023-05-10T16:48:16;15.20;99.90
2577;DHT22;1298;51.252;6.802;2023-05-10T16:51:02;15.30;99.90
2577;DHT22;1298;51.252;6.802;2023-05-10T16:53:48;15.30;99.90
2577;DHT22;1298;51.252;6.802;2023-05-10T16:56:33;15.30;99.90
2577;DHT22;1298;51.252;6.802;2023-05-10T16:59:18;15.20;99.90
2577;DHT22;1298;51.252;6.802;2023-05-10T17:02:04;15.10;99.90
2577;DHT22;1298;51.252;6.802;2023-05-10T17:04:51;15.10;99.90
2577;DHT22;1298;51.252;6.802;2023-05-10T17:07:38;15.10;99.90
2577;DHT22;1298;51.252;6.802;2023-05-10T17:10:23;15.00;99.90
2577;DHT22;1298;51.252;6.802;2023-05-10T17:13:09;15.10;99.90
2577;DHT22;1298;51.252;6.802;2023-05-10T17:15:54;15.10;99.90
2577;DHT22;1298;51.252;6.802;2023-05-10T17:18:39;15.10;99.90
2577;DHT22;1298;51.252;6.802;2023-05-10T17:21:26;15.10;99.90
2577;DHT22;1298;51.252;6.802;2023-05-10T17:24:11;15.00;99.90
2577;DHT22;1298;51.252;6.802;2023-05-10T17:26:56;14.90;99.90
2577;DHT22;1298;51.252;6.802;2023-05-10T17:29:43;14.90;99.90
2577;DHT22;1298;51.252;6.802;2023-05-10T17:32:28;14.90;99.90
2577;DHT22;1298;51.252;6.802;2023-05-10T17:35:13;14.90;99.90
2577;DHT22;1298;51.252;6.802;2023-05-10T17:38:00;14.90;99.90
2577;DHT22;1298;51.252;6.802;2023-05-10T17:40:46;15.00;99.90
2577;DHT22;1298;51.252;6.802;2023-05-10T17:43:31;15.10;99.90
2577;DHT22;1298;51.252;6.802;2023-05-10T17:46:21;15.30;99.90
2577;DHT22;1298;51.252;6.802;2023-05-10T17:49:09;15.40;99.90
2577;DHT22;1298;51.252;6.802;2023-05-10T17:51:55;15.50;99.90
2577;DHT22;1298;51.252;6.802;2023-05-10T17:54:41;15.50;99.90
2577;DHT22;1298;51.252;6.802;2023-05-10T17:57:27;15.40;99.90
2577;DHT22;1298;51.252;6.802;2023-05-10T18:00:12;15.30;99.90
2577;DHT22;1298;51.252;6.802;2023-05-10T18:03:01;15.20;99.90
2577;DHT22;1298;51.252;6.802;2023-05-10T18:05:46;15.20;99.90
2577;DHT22;1298;51.252;6.802;2023-05-10T18:08:35;15.20;99.90
2577;DHT22;1298;51.252;6.802;2023-05-10T18:11:22;15.20;99.90
2577;DHT22;1298;51.252;6.802;2023-05-10T18:14:07;15.20;99.90
2577;DHT22;1298;51.252;6.802;2023-05-10T18:16:52;15.30;99.90